createdAt,value
2022-09-07T00:01:45.676Z,97597.75
2022-09-07T00:05:51.844Z,97595.97
2022-09-07T00:09:56.374Z,97591.09
2022-09-07T00:14:00.371Z,97595.19
2022-09-07T00:18:04.070Z,97590.94
2022-09-07T00:22:07.667Z,97592.59
2022-09-07T00:26:14.928Z,97593.00
2022-09-07T00:30:18.735Z,97589.97
2022-09-07T00:34:22.798Z,97588.56
2022-09-07T00:38:26.147Z,97589.81
2022-09-07T00:42:31.473Z,97592.66
2022-09-07T00:46:35.123Z,97594.69
2022-09-07T00:50:42.500Z,97600.78
2022-09-07T00:54:56.985Z,97583.31
2022-09-07T00:59:02.872Z,97588.59
2022-09-07T01:03:07.668Z,97587.81
2022-09-07T01:07:11.375Z,97582.72
2022-09-07T01:11:15.550Z,97586.63
2022-09-07T01:15:22.161Z,97577.88
2022-09-07T01:20:01.999Z,97580.13
2022-09-07T01:24:47.222Z,97581.34
2022-09-07T01:29:00.651Z,97568.59
2022-09-07T01:33:31.135Z,97573.69
2022-09-07T01:37:44.702Z,97570.88
2022-09-07T01:41:54.123Z,97569.69
2022-09-07T01:46:03.288Z,97575.59
2022-09-07T01:50:12.619Z,97566.69
2022-09-07T01:54:22.451Z,97570.78
2022-09-07T01:58:29.796Z,97569.78
2022-09-07T02:02:40.145Z,97565.50
2022-09-07T02:06:49.337Z,97565.34
2022-09-07T02:10:59.975Z,97553.38
2022-09-07T02:15:07.474Z,97559.28
2022-09-07T02:19:17.583Z,97550.97
2022-09-07T02:23:24.499Z,97554.41
2022-09-07T02:27:35.227Z,97551.59
2022-09-07T02:31:38.421Z,97541.88
2022-09-07T02:35:43.696Z,97547.16
2022-09-07T02:39:48.495Z,97551.03
2022-09-07T02:43:51.745Z,97544.31
2022-09-07T02:48:15.392Z,97547.56
2022-09-07T02:52:32.374Z,97554.44
2022-09-07T02:56:59.595Z,97547.56
2022-09-07T03:01:11.313Z,97544.56
2022-09-07T03:05:22.826Z,97535.41
2022-09-07T03:09:31.626Z,97543.94
2022-09-07T03:13:35.820Z,97532.63
2022-09-07T03:17:39.793Z,97546.19
2022-09-07T03:21:43.715Z,97550.25
2022-09-07T03:25:49.519Z,97550.47
2022-09-07T03:29:53.067Z,97554.34
2022-09-07T03:33:56.853Z,97563.47
2022-09-07T03:38:00.520Z,97572.38
2022-09-07T03:42:05.565Z,97582.09
2022-09-07T03:46:11.098Z,97582.31
2022-09-07T03:50:14.780Z,97590.41
2022-09-07T03:54:18.404Z,97600.31
2022-09-07T03:58:23.404Z,97603.59
2022-09-07T04:02:27.098Z,97595.69
2022-09-07T04:06:30.759Z,97603.59
2022-09-07T04:10:38.694Z,97603.78
2022-09-07T04:14:43.765Z,97609.25
2022-09-07T04:18:47.658Z,97614.94
2022-09-07T04:22:54.273Z,97604.38
2022-09-07T04:26:58.587Z,97605.22
2022-09-07T04:31:04.587Z,97595.47
2022-09-07T04:35:09.456Z,97594.47
2022-09-07T04:39:12.965Z,97599.53
2022-09-07T04:43:16.619Z,97596.69
2022-09-07T04:47:22.400Z,97607.81
2022-09-07T04:51:28.449Z,97610.06
2022-09-07T04:55:32.777Z,97608.63
2022-09-07T04:59:36.392Z,97612.69
2022-09-07T05:03:41.555Z,97613.28
2022-09-07T05:07:46.527Z,97621.81
2022-09-07T05:11:50.552Z,97623.41
2022-09-07T05:15:54.577Z,97643.69
2022-09-07T05:19:59.422Z,97641.66
2022-09-07T05:24:04.885Z,97656.66
2022-09-07T05:28:08.553Z,97653.81
2022-09-07T05:32:11.752Z,97655.84
2022-09-07T05:36:17.455Z,97651.78
2022-09-07T05:40:21.404Z,97654.41
2022-09-07T05:48:48.621Z,97650.50
2022-09-07T05:52:54.450Z,97657.00
2022-09-07T05:56:58.231Z,97661.06
2022-09-07T06:01:03.643Z,97656.78
2022-09-07T06:05:07.512Z,97669.94
2022-09-07T06:09:13.304Z,97676.41
2022-09-07T06:13:17.651Z,97672.31
2022-09-07T06:17:21.291Z,97675.09
2022-09-07T06:21:25.433Z,97672.63
2022-09-07T06:25:30.577Z,97676.84
2022-09-07T06:29:33.850Z,97673.28
2022-09-07T06:33:37.755Z,97672.41
2022-09-07T06:37:42.446Z,97672.72
2022-09-07T06:42:02.868Z,97679.28
2022-09-07T06:50:31.834Z,97657.31
2022-09-07T06:59:01.337Z,97659.34
2022-09-07T07:03:04.954Z,97657.44
2022-09-07T07:07:10.818Z,97668.91
2022-09-07T07:11:15.878Z,97661.53
2022-09-07T07:15:20.570Z,97678.63
2022-09-07T07:19:24.319Z,97679.69
2022-09-07T07:23:29.020Z,97667.50
2022-09-07T07:27:34.779Z,97680.22
2022-09-07T07:31:39.631Z,97676.63
2022-09-07T07:35:43.133Z,97685.56
2022-09-07T07:44:10.487Z,97682.00
2022-09-07T07:48:15.466Z,97695.38
2022-09-07T07:56:42.564Z,97704.94
2022-09-07T08:01:01.561Z,97698.31
2022-09-07T08:05:07.353Z,97701.69
2022-09-07T08:09:11.173Z,97696.94
2022-09-07T08:13:15.129Z,97693.28
2022-09-07T08:17:19.072Z,97699.50
2022-09-07T08:21:23.878Z,97702.56
2022-09-07T08:25:27.394Z,97702.13
2022-09-07T08:29:34.471Z,97701.13
2022-09-07T08:33:39.728Z,97698.38
2022-09-07T08:37:44.193Z,97706.88
2022-09-07T08:42:10.629Z,97689.03
2022-09-07T08:46:27.945Z,97687.78
2022-09-07T08:50:36.441Z,97699.16
2022-09-07T08:54:45.174Z,97696.81
2022-09-07T08:58:50.829Z,97689.84
2022-09-07T09:07:24.692Z,97694.56
2022-09-07T09:11:44.779Z,97683.94
2022-09-07T09:15:56.483Z,97685.25
2022-09-07T09:20:12.366Z,97681.31
2022-09-07T09:24:19.378Z,97675.22
2022-09-07T09:28:27.668Z,97674.81
2022-09-07T09:32:36.762Z,97668.91
2022-09-07T09:36:46.786Z,97660.72
2022-09-07T09:40:54.041Z,97667.78
2022-09-07T09:45:04.979Z,97674.63
2022-09-07T09:49:18.186Z,97670.34
2022-09-07T09:53:27.638Z,97662.81
2022-09-07T10:06:57.041Z,97647.41
2022-09-07T10:11:03.008Z,97638.31
2022-09-07T10:15:08.068Z,97635.53
2022-09-07T10:19:26.909Z,97638.66
2022-09-07T10:23:30.485Z,97628.88
2022-09-07T10:27:37.133Z,97630.38
2022-09-07T10:31:59.188Z,97620.44
2022-09-07T10:36:11.992Z,97623.75
2022-09-07T10:40:24.674Z,97617.44
2022-09-07T10:44:52.158Z,97611.94
2022-09-07T10:49:12.986Z,97615.84
2022-09-07T10:54:29.977Z,97604.38
2022-09-07T11:03:31.916Z,97600.69
2022-09-07T11:07:52.209Z,97586.41
2022-09-07T11:12:03.597Z,97587.50
2022-09-07T11:16:08.978Z,97588.81
2022-09-07T11:20:23.444Z,97588.63
2022-09-07T11:24:33.399Z,97577.66
2022-09-07T11:28:47.607Z,97580.50
2022-09-07T11:33:01.068Z,97580.16
2022-09-07T11:37:10.997Z,97578.22
2022-09-07T11:41:26.805Z,97579.81
2022-09-07T11:45:37.115Z,97569.16
2022-09-07T11:49:40.737Z,97561.03
2022-09-07T11:53:48.111Z,97556.91
2022-09-07T11:58:10.357Z,97548.53
2022-09-07T12:02:58.181Z,97551.88
2022-09-07T12:07:20.868Z,97549.00
2022-09-07T12:11:38.503Z,97536.13
2022-09-07T12:15:51.696Z,97530.84
2022-09-07T12:20:15.745Z,97541.63
2022-09-07T12:24:40.513Z,97529.84
2022-09-07T12:29:07.714Z,97530.84
2022-09-07T12:33:31.709Z,97532.78
2022-09-07T12:37:44.579Z,97534.19
2022-09-07T12:42:31.957Z,97525.78
2022-09-07T12:46:21.649Z,97525.59
2022-09-07T12:50:30.341Z,97526.69
2022-09-07T12:54:40.077Z,97525.59
2022-09-07T12:58:52.581Z,97517.00
2022-09-07T13:08:10.661Z,97500.84
2022-09-07T13:12:57.343Z,97496.22
2022-09-07T13:17:31.126Z,97499.75
2022-09-07T13:21:40.598Z,97493.84
2022-09-07T13:25:49.167Z,97491.66
2022-09-07T13:29:59.379Z,97488.66
2022-09-07T13:34:23.417Z,97490.41
2022-09-07T13:38:31.717Z,97485.31
2022-09-07T13:42:37.920Z,97466.38
2022-09-07T13:46:52.317Z,97464.09
2022-09-07T13:51:02.228Z,97456.31
2022-09-07T13:55:25.688Z,97454.09
2022-09-07T13:59:34.075Z,97453.91
2022-09-07T14:03:47.935Z,97445.13
2022-09-07T14:07:54.496Z,97440.06
2022-09-07T14:12:03.607Z,97434.66
2022-09-07T14:16:08.885Z,97426.84
2022-09-07T14:20:15.640Z,97422.69
2022-09-07T14:24:27.887Z,97422.63
2022-09-07T14:28:38.000Z,97413.19
2022-09-07T14:32:45.910Z,97412.47
2022-09-07T14:36:51.701Z,97410.03
2022-09-07T14:41:01.549Z,97407.47
2022-09-07T14:45:21.484Z,97404.53
2022-09-07T14:49:25.724Z,97400.41
2022-09-07T14:53:34.445Z,97398.28
2022-09-07T14:57:39.177Z,97396.97
2022-09-07T15:01:45.837Z,97383.44
2022-09-07T15:05:50.720Z,97412.06
2022-09-07T15:09:55.470Z,97406.59
2022-09-07T15:14:01.420Z,97418.38
2022-09-07T15:18:10.291Z,97425.47
2022-09-07T15:22:14.436Z,97417.41
2022-09-07T15:31:40.385Z,97416.34
2022-09-07T15:35:13.016Z,97405.78
2022-09-07T15:39:19.930Z,97391.13
2022-09-07T15:43:24.295Z,97396.84
2022-09-07T15:47:50.580Z,97395.06
2022-09-07T15:52:09.939Z,97387.84
2022-09-07T15:56:14.131Z,97381.06
2022-09-07T16:00:18.274Z,97376.91
2022-09-07T16:04:24.034Z,97373.56
2022-09-07T16:08:36.716Z,97369.25
2022-09-07T16:21:34.321Z,97358.94
2022-09-07T16:25:41.899Z,97360.78
2022-09-07T16:29:47.394Z,97338.03
2022-09-07T16:33:53.076Z,97344.03
2022-09-07T16:42:22.684Z,97328.28
2022-09-07T16:46:28.808Z,97337.53
2022-09-07T16:50:34.372Z,97347.22
2022-09-07T16:54:39.053Z,97335.97
2022-09-07T16:58:47.423Z,97317.31
2022-09-07T17:02:52.027Z,97320.53
2022-09-07T17:06:55.685Z,97334.53
2022-09-07T17:11:02.840Z,97337.91
2022-09-07T17:15:10.031Z,97330.56
2022-09-07T17:19:33.359Z,97320.03
2022-09-07T17:23:45.591Z,97333.84
2022-09-07T17:27:53.734Z,97331.06
2022-09-07T17:36:30.898Z,97329.19
2022-09-07T17:40:34.604Z,97313.22
2022-09-07T17:44:39.785Z,97338.88
2022-09-07T17:48:45.464Z,97335.13
2022-09-07T17:52:52.963Z,97337.28
2022-09-07T17:56:56.797Z,97311.81
2022-09-07T18:01:03.670Z,97332.38
2022-09-07T18:05:09.486Z,97335.00
2022-09-07T18:09:15.458Z,97341.63
2022-09-07T18:13:25.495Z,97334.88
2022-09-07T18:17:34.348Z,97305.66
2022-09-07T18:21:41.310Z,97326.78
2022-09-07T18:25:47.199Z,97334.22
2022-09-07T18:29:50.894Z,97332.63
2022-09-07T18:33:55.829Z,97331.25
2022-09-07T18:38:02.133Z,97332.59
2022-09-07T18:42:06.189Z,97319.75
2022-09-07T18:46:14.249Z,97323.47
2022-09-07T18:50:18.926Z,97305.25
2022-09-07T18:54:24.178Z,97305.50
2022-09-07T18:58:30.033Z,97323.34
2022-09-07T19:02:34.963Z,97286.38
2022-09-07T19:06:44.650Z,97321.34
2022-09-07T19:10:51.763Z,97317.78
2022-09-07T19:14:56.703Z,97312.34
2022-09-07T19:19:08.733Z,97310.94
2022-09-07T19:23:17.160Z,97314.97
2022-09-07T19:27:22.578Z,97320.78
2022-09-07T19:31:26.543Z,97324.88
2022-09-07T19:35:30.862Z,97321.56
2022-09-07T19:39:34.928Z,97324.91
2022-09-07T19:43:41.329Z,97324.78
2022-09-07T19:47:44.983Z,97312.97
2022-09-07T19:51:50.894Z,97321.34
2022-09-07T19:55:55.598Z,97327.38
2022-09-07T20:00:00.892Z,97314.50
2022-09-07T20:04:06.086Z,97314.69
2022-09-07T20:08:09.912Z,97316.72
2022-09-07T20:12:13.912Z,97319.06
2022-09-07T20:16:20.569Z,97312.38
2022-09-07T20:20:24.639Z,97302.50
2022-09-07T20:24:28.624Z,97296.88
2022-09-07T20:28:33.921Z,97289.41
2022-09-07T20:32:38.788Z,97289.31
2022-09-07T20:36:42.664Z,97289.47
2022-09-07T20:40:54.756Z,97284.31
2022-09-07T20:44:58.298Z,97283.69
2022-09-07T20:49:04.062Z,97275.91
2022-09-07T20:53:07.669Z,97276.31
2022-09-07T20:57:11.382Z,97270.34
2022-09-07T21:01:16.530Z,97271.59
2022-09-07T21:05:21.393Z,97260.00
2022-09-07T21:09:25.291Z,97259.59
2022-09-07T21:13:28.777Z,97251.22
2022-09-07T21:17:31.833Z,97248.94
2022-09-07T21:21:39.392Z,97246.22
2022-09-07T21:25:46.381Z,97251.66
2022-09-07T21:29:50.746Z,97251.03
2022-09-07T21:33:56.983Z,97257.28
2022-09-07T21:38:02.679Z,97252.38
2022-09-07T21:42:06.509Z,97257.03
2022-09-07T21:46:10.648Z,97249.22
2022-09-07T21:50:14.677Z,97231.38
2022-09-07T21:54:19.472Z,97229.69
2022-09-07T21:58:22.972Z,97232.22
2022-09-07T22:02:26.051Z,97224.41
2022-09-07T22:06:32.769Z,97221.88
2022-09-07T22:10:38.049Z,97206.94
2022-09-07T22:14:41.522Z,97199.13
2022-09-07T22:18:46.241Z,97196.63
2022-09-07T22:22:50.319Z,97177.44
2022-09-07T22:26:54.890Z,97175.47
2022-09-07T22:30:58.707Z,97187.81
2022-09-07T22:35:02.224Z,97187.16
2022-09-07T22:39:07.682Z,97173.44
2022-09-07T22:43:13.071Z,97166.94
2022-09-07T22:47:16.219Z,97164.84
2022-09-07T22:51:19.731Z,97152.78
2022-09-07T22:55:23.472Z,97149.69
2022-09-07T22:59:29.307Z,97145.34
2022-09-07T23:03:34.532Z,97149.47
2022-09-07T23:07:39.126Z,97148.31
2022-09-07T23:11:43.417Z,97148.78
2022-09-07T23:15:49.213Z,97142.13
2022-09-07T23:19:52.996Z,97129.03
2022-09-07T23:23:58.555Z,97110.63
2022-09-07T23:28:02.128Z,97101.56
2022-09-07T23:32:07.361Z,97098.81
2022-09-07T23:36:11.266Z,97104.19
2022-09-07T23:40:15.833Z,97100.88
2022-09-07T23:44:19.522Z,97107.03
2022-09-07T23:48:25.567Z,97095.78
2022-09-07T23:52:28.658Z,97092.44
2022-09-07T23:56:33.190Z,97074.88
